sensor_id;sensor_type;location;lat;lon;timestamp;P1;durP1;ratioP1;P2;durP2;ratioP2
739;SDS011;354;42.694;23.336;2024-02-26T00:01:22;44.73;;;35.90;;
739;SDS011;354;42.694;23.336;2024-02-26T00:03:48;48.50;;;37.20;;
739;SDS011;354;42.694;23.336;2024-02-26T00:06:13;48.27;;;37.47;;
739;SDS011;354;42.694;23.336;2024-02-26T00:08:39;48.67;;;38.50;;
739;SDS011;354;42.694;23.336;2024-02-26T00:11:04;45.80;;;38.37;;
739;SDS011;354;42.694;23.336;2024-02-26T00:13:30;56.17;;;41.20;;
739;SDS011;354;42.694;23.336;2024-02-26T00:15:55;54.70;;;38.83;;
739;SDS011;354;42.694;23.336;2024-02-26T00:18:20;53.03;;;37.57;;
739;SDS011;354;42.694;23.336;2024-02-26T00:20:46;49.37;;;37.87;;
739;SDS011;354;42.694;23.336;2024-02-26T00:23:11;49.43;;;38.33;;
739;SDS011;354;42.694;23.336;2024-02-26T00:25:40;44.80;;;37.27;;
739;SDS011;354;42.694;23.336;2024-02-26T00:28:07;41.50;;;33.23;;
739;SDS011;354;42.694;23.336;2024-02-26T00:30:33;40.43;;;31.50;;
739;SDS011;354;42.694;23.336;2024-02-26T00:32:59;45.63;;;36.47;;
739;SDS011;354;42.694;23.336;2024-02-26T00:35:24;39.33;;;32.47;;
739;SDS011;354;42.694;23.336;2024-02-26T00:37:49;42.20;;;32.97;;
739;SDS011;354;42.694;23.336;2024-02-26T00:40:15;46.87;;;37.17;;
739;SDS011;354;42.694;23.336;2024-02-26T00:42:40;44.80;;;33.60;;
739;SDS011;354;42.694;23.336;2024-02-26T00:45:10;44.93;;;34.73;;
739;SDS011;354;42.694;23.336;2024-02-26T00:47:38;53.27;;;42.33;;
739;SDS011;354;42.694;23.336;2024-02-26T00:50:06;51.97;;;38.83;;
739;SDS011;354;42.694;23.336;2024-02-26T00:52:33;53.63;;;42.57;;
739;SDS011;354;42.694;23.336;2024-02-26T00:54:59;50.63;;;39.33;;
739;SDS011;354;42.694;23.336;2024-02-26T00:57:24;48.87;;;38.10;;
739;SDS011;354;42.694;23.336;2024-02-26T00:59:50;45.23;;;35.40;;
739;SDS011;354;42.694;23.336;2024-02-26T01:02:15;46.90;;;34.97;;
739;SDS011;354;42.694;23.336;2024-02-26T01:04:41;44.40;;;35.30;;
739;SDS011;354;42.694;23.336;2024-02-26T01:07:06;44.33;;;34.93;;
739;SDS011;354;42.694;23.336;2024-02-26T01:09:32;45.90;;;36.27;;
739;SDS011;354;42.694;23.336;2024-02-26T01:11:57;47.87;;;37.80;;
739;SDS011;354;42.694;23.336;2024-02-26T01:14:22;44.40;;;36.00;;
739;SDS011;354;42.694;23.336;2024-02-26T01:16:48;39.53;;;35.33;;
739;SDS011;354;42.694;23.336;2024-02-26T01:19:13;41.87;;;35.40;;
739;SDS011;354;42.694;23.336;2024-02-26T01:21:39;44.53;;;35.13;;
739;SDS011;354;42.694;23.336;2024-02-26T01:24:04;38.33;;;33.53;;
739;SDS011;354;42.694;23.336;2024-02-26T01:26:30;46.13;;;34.53;;
739;SDS011;354;42.694;23.336;2024-02-26T01:28:56;40.13;;;33.23;;
739;SDS011;354;42.694;23.336;2024-02-26T01:31:21;42.97;;;34.83;;
739;SDS011;354;42.694;23.336;2024-02-26T01:33:46;41.47;;;33.87;;
739;SDS011;354;42.694;23.336;2024-02-26T01:36:12;41.33;;;32.40;;
739;SDS011;354;42.694;23.336;2024-02-26T01:38:37;35.40;;;30.30;;
739;SDS011;354;42.694;23.336;2024-02-26T01:41:03;39.00;;;33.17;;
739;SDS011;354;42.694;23.336;2024-02-26T01:43:28;36.20;;;31.80;;
739;SDS011;354;42.694;23.336;2024-02-26T01:45:54;38.20;;;30.80;;
739;SDS011;354;42.694;23.336;2024-02-26T01:48:20;36.53;;;30.13;;
739;SDS011;354;42.694;23.336;2024-02-26T01:50:46;38.17;;;30.83;;
739;SDS011;354;42.694;23.336;2024-02-26T01:53:11;41.37;;;32.73;;
739;SDS011;354;42.694;23.336;2024-02-26T01:55:38;37.73;;;31.50;;
739;SDS011;354;42.694;23.336;2024-02-26T01:58:04;37.17;;;31.37;;
739;SDS011;354;42.694;23.336;2024-02-26T02:00:30;36.63;;;30.50;;
739;SDS011;354;42.694;23.336;2024-02-26T02:02:56;39.17;;;31.73;;
739;SDS011;354;42.694;23.336;2024-02-26T02:05:22;38.93;;;30.30;;
739;SDS011;354;42.694;23.336;2024-02-26T02:07:47;35.87;;;30.47;;
739;SDS011;354;42.694;23.336;2024-02-26T02:10:14;38.47;;;32.00;;
739;SDS011;354;42.694;23.336;2024-02-26T02:12:40;38.73;;;30.80;;
739;SDS011;354;42.694;23.336;2024-02-26T02:15:06;38.60;;;32.87;;
739;SDS011;354;42.694;23.336;2024-02-26T02:17:32;38.87;;;31.93;;
739;SDS011;354;42.694;23.336;2024-02-26T02:19:58;39.27;;;32.50;;
739;SDS011;354;42.694;23.336;2024-02-26T02:22:23;43.47;;;33.80;;
739;SDS011;354;42.694;23.336;2024-02-26T02:24:49;43.03;;;33.47;;
739;SDS011;354;42.694;23.336;2024-02-26T02:27:16;41.50;;;34.47;;
739;SDS011;354;42.694;23.336;2024-02-26T02:29:42;43.20;;;34.63;;
739;SDS011;354;42.694;23.336;2024-02-26T02:32:08;42.60;;;32.87;;
739;SDS011;354;42.694;23.336;2024-02-26T02:34:34;40.10;;;33.23;;
739;SDS011;354;42.694;23.336;2024-02-26T02:37:01;42.90;;;32.30;;
739;SDS011;354;42.694;23.336;2024-02-26T02:39:26;42.23;;;32.07;;
739;SDS011;354;42.694;23.336;2024-02-26T02:41:51;42.67;;;33.07;;
739;SDS011;354;42.694;23.336;2024-02-26T02:44:17;45.30;;;33.53;;
739;SDS011;354;42.694;23.336;2024-02-26T02:46:42;37.53;;;32.93;;
739;SDS011;354;42.694;23.336;2024-02-26T02:49:08;39.53;;;32.73;;
739;SDS011;354;42.694;23.336;2024-02-26T02:51:35;40.43;;;32.80;;
739;SDS011;354;42.694;23.336;2024-02-26T02:54:00;42.70;;;33.13;;
739;SDS011;354;42.694;23.336;2024-02-26T02:56:26;39.17;;;33.83;;
739;SDS011;354;42.694;23.336;2024-02-26T02:58:51;39.20;;;30.90;;
739;SDS011;354;42.694;23.336;2024-02-26T03:01:16;43.87;;;33.63;;
739;SDS011;354;42.694;23.336;2024-02-26T03:03:42;38.90;;;32.90;;
739;SDS011;354;42.694;23.336;2024-02-26T03:06:07;45.13;;;34.87;;
739;SDS011;354;42.694;23.336;2024-02-26T03:08:32;44.27;;;34.37;;
739;SDS011;354;42.694;23.336;2024-02-26T03:11:01;40.63;;;32.37;;
739;SDS011;354;42.694;23.336;2024-02-26T03:13:27;39.07;;;32.23;;
739;SDS011;354;42.694;23.336;2024-02-26T03:15:52;41.60;;;34.73;;
739;SDS011;354;42.694;23.336;2024-02-26T03:18:18;38.47;;;32.63;;
739;SDS011;354;42.694;23.336;2024-02-26T03:20:43;38.60;;;34.13;;
739;SDS011;354;42.694;23.336;2024-02-26T03:23:08;43.63;;;32.70;;
739;SDS011;354;42.694;23.336;2024-02-26T03:25:37;39.17;;;34.40;;
739;SDS011;354;42.694;23.336;2024-02-26T03:28:03;39.80;;;31.10;;
739;SDS011;354;42.694;23.336;2024-02-26T03:30:28;40.87;;;33.70;;
739;SDS011;354;42.694;23.336;2024-02-26T03:32:54;37.90;;;32.53;;
739;SDS011;354;42.694;23.336;2024-02-26T03:35:19;39.33;;;32.87;;
739;SDS011;354;42.694;23.336;2024-02-26T03:37:45;43.07;;;33.17;;
739;SDS011;354;42.694;23.336;2024-02-26T03:40:12;42.73;;;34.10;;
739;SDS011;354;42.694;23.336;2024-02-26T03:42:39;38.40;;;33.63;;
739;SDS011;354;42.694;23.336;2024-02-26T03:45:05;39.33;;;32.70;;
739;SDS011;354;42.694;23.336;2024-02-26T03:47:31;40.10;;;34.80;;
739;SDS011;354;42.694;23.336;2024-02-26T03:49:56;40.23;;;33.13;;
739;SDS011;354;42.694;23.336;2024-02-26T03:52:24;38.23;;;32.73;;
739;SDS011;354;42.694;23.336;2024-02-26T03:54:49;42.17;;;33.27;;
739;SDS011;354;42.694;23.336;2024-02-26T03:57:15;39.03;;;33.30;;
739;SDS011;354;42.694;23.336;2024-02-26T03:59:40;42.43;;;35.13;;
739;SDS011;354;42.694;23.336;2024-02-26T04:02:06;38.10;;;32.00;;
739;SDS011;354;42.694;23.336;2024-02-26T04:04:33;36.73;;;30.10;;
739;SDS011;354;42.694;23.336;2024-02-26T04:06:59;44.67;;;34.90;;
739;SDS011;354;42.694;23.336;2024-02-26T04:09:25;35.77;;;31.13;;
739;SDS011;354;42.694;23.336;2024-02-26T04:11:50;34.30;;;30.23;;
739;SDS011;354;42.694;23.336;2024-02-26T04:14:16;39.50;;;31.10;;
739;SDS011;354;42.694;23.336;2024-02-26T04:16:41;39.77;;;31.47;;
739;SDS011;354;42.694;23.336;2024-02-26T04:19:06;37.33;;;32.27;;
739;SDS011;354;42.694;23.336;2024-02-26T04:21:32;40.27;;;32.10;;
739;SDS011;354;42.694;23.336;2024-02-26T04:23:58;38.83;;;32.67;;
739;SDS011;354;42.694;23.336;2024-02-26T04:26:26;39.67;;;33.33;;
739;SDS011;354;42.694;23.336;2024-02-26T04:28:52;39.33;;;33.67;;
739;SDS011;354;42.694;23.336;2024-02-26T04:31:18;46.10;;;35.17;;
739;SDS011;354;42.694;23.336;2024-02-26T04:33:43;42.70;;;33.87;;
739;SDS011;354;42.694;23.336;2024-02-26T04:36:13;47.50;;;35.43;;
739;SDS011;354;42.694;23.336;2024-02-26T04:38:41;46.43;;;34.10;;
739;SDS011;354;42.694;23.336;2024-02-26T04:41:06;43.53;;;34.83;;
739;SDS011;354;42.694;23.336;2024-02-26T04:43:32;40.80;;;33.47;;
739;SDS011;354;42.694;23.336;2024-02-26T04:45:57;43.47;;;36.60;;
739;SDS011;354;42.694;23.336;2024-02-26T04:48:22;45.27;;;36.37;;
739;SDS011;354;42.694;23.336;2024-02-26T04:50:48;45.23;;;36.63;;
739;SDS011;354;42.694;23.336;2024-02-26T04:53:13;43.97;;;36.87;;
739;SDS011;354;42.694;23.336;2024-02-26T04:55:39;43.07;;;36.40;;
739;SDS011;354;42.694;23.336;2024-02-26T04:58:04;39.80;;;35.20;;
739;SDS011;354;42.694;23.336;2024-02-26T05:00:29;44.60;;;37.33;;
739;SDS011;354;42.694;23.336;2024-02-26T05:02:55;44.63;;;34.27;;
739;SDS011;354;42.694;23.336;2024-02-26T05:05:20;42.03;;;34.47;;
739;SDS011;354;42.694;23.336;2024-02-26T05:07:45;43.57;;;34.23;;
739;SDS011;354;42.694;23.336;2024-02-26T05:10:11;41.13;;;35.03;;
739;SDS011;354;42.694;23.336;2024-02-26T05:12:36;43.13;;;34.77;;
739;SDS011;354;42.694;23.336;2024-02-26T05:15:02;43.03;;;32.07;;
739;SDS011;354;42.694;23.336;2024-02-26T05:17:28;39.50;;;31.83;;
739;SDS011;354;42.694;23.336;2024-02-26T05:19:54;47.70;;;33.37;;
739;SDS011;354;42.694;23.336;2024-02-26T05:22:19;44.67;;;34.60;;
739;SDS011;354;42.694;23.336;2024-02-26T05:24:45;39.80;;;34.27;;
739;SDS011;354;42.694;23.336;2024-02-26T05:27:10;43.17;;;36.37;;
739;SDS011;354;42.694;23.336;2024-02-26T05:29:37;44.17;;;34.50;;
739;SDS011;354;42.694;23.336;2024-02-26T05:32:02;39.03;;;33.27;;
739;SDS011;354;42.694;23.336;2024-02-26T05:34:28;42.90;;;34.80;;
739;SDS011;354;42.694;23.336;2024-02-26T05:36:55;41.77;;;34.10;;
739;SDS011;354;42.694;23.336;2024-02-26T05:39:20;39.70;;;31.40;;
739;SDS011;354;42.694;23.336;2024-02-26T05:41:46;39.87;;;34.43;;
739;SDS011;354;42.694;23.336;2024-02-26T05:44:11;41.93;;;34.47;;
739;SDS011;354;42.694;23.336;2024-02-26T05:46:37;39.50;;;31.50;;
739;SDS011;354;42.694;23.336;2024-02-26T05:49:02;40.27;;;32.57;;
739;SDS011;354;42.694;23.336;2024-02-26T05:51:28;36.03;;;30.30;;
739;SDS011;354;42.694;23.336;2024-02-26T05:53:53;44.17;;;30.30;;
739;SDS011;354;42.694;23.336;2024-02-26T05:56:20;38.47;;;33.17;;
739;SDS011;354;42.694;23.336;2024-02-26T05:58:46;43.43;;;35.10;;
739;SDS011;354;42.694;23.336;2024-02-26T06:01:12;40.37;;;31.20;;
739;SDS011;354;42.694;23.336;2024-02-26T06:03:38;39.13;;;32.00;;
739;SDS011;354;42.694;23.336;2024-02-26T06:06:03;45.23;;;31.60;;
739;SDS011;354;42.694;23.336;2024-02-26T06:08:29;37.77;;;29.97;;
739;SDS011;354;42.694;23.336;2024-02-26T06:10:54;44.07;;;33.33;;
739;SDS011;354;42.694;23.336;2024-02-26T06:13:19;41.80;;;31.07;;
739;SDS011;354;42.694;23.336;2024-02-26T06:15:45;45.87;;;36.10;;
739;SDS011;354;42.694;23.336;2024-02-26T06:18:11;36.77;;;29.37;;
739;SDS011;354;42.694;23.336;2024-02-26T06:20:36;39.47;;;31.53;;
739;SDS011;354;42.694;23.336;2024-02-26T06:23:01;44.13;;;30.13;;
739;SDS011;354;42.694;23.336;2024-02-26T06:25:27;37.20;;;28.33;;
739;SDS011;354;42.694;23.336;2024-02-26T06:27:52;39.87;;;30.00;;
739;SDS011;354;42.694;23.336;2024-02-26T06:30:18;38.30;;;29.33;;
739;SDS011;354;42.694;23.336;2024-02-26T06:32:43;38.73;;;28.83;;
739;SDS011;354;42.694;23.336;2024-02-26T06:35:08;37.60;;;30.50;;
739;SDS011;354;42.694;23.336;2024-02-26T06:37:36;35.00;;;30.00;;
739;SDS011;354;42.694;23.336;2024-02-26T06:40:01;39.87;;;30.27;;
739;SDS011;354;42.694;23.336;2024-02-26T06:42:31;85.87;;;61.13;;
739;SDS011;354;42.694;23.336;2024-02-26T06:44:57;41.77;;;31.80;;
739;SDS011;354;42.694;23.336;2024-02-26T06:47:23;42.90;;;31.13;;
739;SDS011;354;42.694;23.336;2024-02-26T06:49:48;39.80;;;30.07;;
739;SDS011;354;42.694;23.336;2024-02-26T06:52:13;39.13;;;30.80;;
739;SDS011;354;42.694;23.336;2024-02-26T06:54:39;40.67;;;29.63;;
739;SDS011;354;42.694;23.336;2024-02-26T06:57:04;41.00;;;31.73;;
739;SDS011;354;42.694;23.336;2024-02-26T06:59:30;43.07;;;32.83;;
739;SDS011;354;42.694;23.336;2024-02-26T07:01:55;39.03;;;31.10;;
739;SDS011;354;42.694;23.336;2024-02-26T07:04:21;41.13;;;30.13;;
739;SDS011;354;42.694;23.336;2024-02-26T07:06:46;70.07;;;57.60;;
739;SDS011;354;42.694;23.336;2024-02-26T07:09:12;38.73;;;30.30;;
739;SDS011;354;42.694;23.336;2024-02-26T07:11:38;38.37;;;31.13;;
739;SDS011;354;42.694;23.336;2024-02-26T07:14:07;59.00;;;43.70;;
739;SDS011;354;42.694;23.336;2024-02-26T07:16:33;44.83;;;37.50;;
739;SDS011;354;42.694;23.336;2024-02-26T07:18:59;34.50;;;28.27;;
739;SDS011;354;42.694;23.336;2024-02-26T07:21:24;41.53;;;30.07;;
739;SDS011;354;42.694;23.336;2024-02-26T07:23:49;34.23;;;28.87;;
739;SDS011;354;42.694;23.336;2024-02-26T07:26:15;33.30;;;27.60;;
739;SDS011;354;42.694;23.336;2024-02-26T07:28:42;37.93;;;30.00;;
739;SDS011;354;42.694;23.336;2024-02-26T07:31:07;46.77;;;29.03;;
739;SDS011;354;42.694;23.336;2024-02-26T07:33:33;39.13;;;28.03;;
739;SDS011;354;42.694;23.336;2024-02-26T07:35:58;49.90;;;35.53;;
739;SDS011;354;42.694;23.336;2024-02-26T07:38:24;44.47;;;33.77;;
739;SDS011;354;42.694;23.336;2024-02-26T07:40:49;55.17;;;35.43;;
739;SDS011;354;42.694;23.336;2024-02-26T07:43:15;48.00;;;33.67;;
739;SDS011;354;42.694;23.336;2024-02-26T07:45:40;47.03;;;33.30;;
739;SDS011;354;42.694;23.336;2024-02-26T07:48:06;42.43;;;32.37;;
739;SDS011;354;42.694;23.336;2024-02-26T07:50:31;44.37;;;30.70;;
739;SDS011;354;42.694;23.336;2024-02-26T07:52:57;39.23;;;30.13;;
739;SDS011;354;42.694;23.336;2024-02-26T07:55:23;39.23;;;28.93;;
739;SDS011;354;42.694;23.336;2024-02-26T07:57:48;37.10;;;29.40;;
739;SDS011;354;42.694;23.336;2024-02-26T08:00:14;37.33;;;30.30;;
739;SDS011;354;42.694;23.336;2024-02-26T08:02:41;39.40;;;31.13;;
739;SDS011;354;42.694;23.336;2024-02-26T08:05:08;38.00;;;29.17;;
739;SDS011;354;42.694;23.336;2024-02-26T08:07:33;38.00;;;29.53;;
739;SDS011;354;42.694;23.336;2024-02-26T08:09:58;51.03;;;38.00;;
739;SDS011;354;42.694;23.336;2024-02-26T08:12:24;39.03;;;33.33;;
739;SDS011;354;42.694;23.336;2024-02-26T11:19:57;11.00;;;10.10;;
739;SDS011;354;42.694;23.336;2024-02-26T11:22:26;12.00;;;10.90;;
739;SDS011;354;42.694;23.336;2024-02-26T11:24:55;11.32;;;10.43;;
739;SDS011;354;42.694;23.336;2024-02-26T11:30:22;11.37;;;10.27;;
739;SDS011;354;42.694;23.336;2024-02-26T11:32:49;10.32;;;9.30;;
739;SDS011;354;42.694;23.336;2024-02-26T11:35:15;11.73;;;10.17;;
739;SDS011;354;42.694;23.336;2024-02-26T11:37:56;11.90;;;10.83;;
739;SDS011;354;42.694;23.336;2024-02-26T11:40:26;11.07;;;10.17;;
739;SDS011;354;42.694;23.336;2024-02-26T11:42:52;12.30;;;11.25;;
739;SDS011;354;42.694;23.336;2024-02-26T11:48:03;16.53;;;13.50;;
739;SDS011;354;42.694;23.336;2024-02-26T11:50:36;13.55;;;12.25;;
739;SDS011;354;42.694;23.336;2024-02-26T11:58:57;11.82;;;10.90;;
739;SDS011;354;42.694;23.336;2024-02-26T12:04:06;10.20;;;9.15;;
739;SDS011;354;42.694;23.336;2024-02-26T12:06:43;11.82;;;10.15;;
739;SDS011;354;42.694;23.336;2024-02-26T12:09:10;12.65;;;10.48;;
739;SDS011;354;42.694;23.336;2024-02-26T12:11:39;12.55;;;10.05;;
739;SDS011;354;42.694;23.336;2024-02-26T12:14:07;10.15;;;9.30;;
739;SDS011;354;42.694;23.336;2024-02-26T12:16:40;26.70;;;23.83;;
739;SDS011;354;42.694;23.336;2024-02-26T12:19:08;16.23;;;14.55;;
739;SDS011;354;42.694;23.336;2024-02-26T12:21:36;9.63;;;8.73;;
739;SDS011;354;42.694;23.336;2024-02-26T12:24:14;9.77;;;8.87;;
739;SDS011;354;42.694;23.336;2024-02-26T12:26:43;9.30;;;8.50;;
739;SDS011;354;42.694;23.336;2024-02-26T12:29:09;9.07;;;8.20;;
739;SDS011;354;42.694;23.336;2024-02-26T12:31:36;10.00;;;8.90;;
739;SDS011;354;42.694;23.336;2024-02-26T12:34:02;8.85;;;7.97;;
739;SDS011;354;42.694;23.336;2024-02-26T12:36:29;9.98;;;8.27;;
739;SDS011;354;42.694;23.336;2024-02-26T12:38:55;10.13;;;9.05;;
739;SDS011;354;42.694;23.336;2024-02-26T12:41:21;12.98;;;8.95;;
739;SDS011;354;42.694;23.336;2024-02-26T12:43:47;9.90;;;9.07;;
739;SDS011;354;42.694;23.336;2024-02-26T12:46:13;9.25;;;8.55;;
739;SDS011;354;42.694;23.336;2024-02-26T12:48:42;9.93;;;9.05;;
739;SDS011;354;42.694;23.336;2024-02-26T12:51:08;18.60;;;16.02;;
739;SDS011;354;42.694;23.336;2024-02-26T12:53:35;11.82;;;10.68;;
739;SDS011;354;42.694;23.336;2024-02-26T12:56:01;9.25;;;8.45;;
739;SDS011;354;42.694;23.336;2024-02-26T12:58:28;9.35;;;8.60;;
739;SDS011;354;42.694;23.336;2024-02-26T13:00:54;9.48;;;8.57;;
739;SDS011;354;42.694;23.336;2024-02-26T13:03:20;10.65;;;9.75;;
739;SDS011;354;42.694;23.336;2024-02-26T13:05:47;8.95;;;8.05;;
739;SDS011;354;42.694;23.336;2024-02-26T13:08:17;8.93;;;8.07;;
739;SDS011;354;42.694;23.336;2024-02-26T13:10:43;8.77;;;7.97;;
739;SDS011;354;42.694;23.336;2024-02-26T13:13:10;20.40;;;18.13;;
739;SDS011;354;42.694;23.336;2024-02-26T13:15:35;10.35;;;9.45;;
739;SDS011;354;42.694;23.336;2024-02-26T13:18:08;9.15;;;8.35;;
739;SDS011;354;42.694;23.336;2024-02-26T13:20:37;8.93;;;8.02;;
739;SDS011;354;42.694;23.336;2024-02-26T13:23:05;8.85;;;8.15;;
739;SDS011;354;42.694;23.336;2024-02-26T13:25:32;8.82;;;8.13;;
739;SDS011;354;42.694;23.336;2024-02-26T13:28:13;9.43;;;8.63;;
739;SDS011;354;42.694;23.336;2024-02-26T13:30:54;9.40;;;8.63;;
739;SDS011;354;42.694;23.336;2024-02-26T13:33:24;10.37;;;9.60;;
739;SDS011;354;42.694;23.336;2024-02-26T13:35:51;8.60;;;7.90;;
739;SDS011;354;42.694;23.336;2024-02-26T13:38:17;10.47;;;8.00;;
739;SDS011;354;42.694;23.336;2024-02-26T13:40:43;8.80;;;8.00;;
739;SDS011;354;42.694;23.336;2024-02-26T13:43:08;8.80;;;8.05;;
739;SDS011;354;42.694;23.336;2024-02-26T13:45:34;8.80;;;7.97;;
739;SDS011;354;42.694;23.336;2024-02-26T13:48:02;8.38;;;7.55;;
739;SDS011;354;42.694;23.336;2024-02-26T13:50:29;9.70;;;8.13;;
739;SDS011;354;42.694;23.336;2024-02-26T13:52:55;10.00;;;8.93;;
739;SDS011;354;42.694;23.336;2024-02-26T13:55:30;9.83;;;8.93;;
739;SDS011;354;42.694;23.336;2024-02-26T13:57:57;10.70;;;9.73;;
739;SDS011;354;42.694;23.336;2024-02-26T14:00:24;8.20;;;7.60;;
739;SDS011;354;42.694;23.336;2024-02-26T14:02:50;10.10;;;8.82;;
739;SDS011;354;42.694;23.336;2024-02-26T14:05:16;8.37;;;7.57;;
739;SDS011;354;42.694;23.336;2024-02-26T14:07:42;8.53;;;7.87;;
739;SDS011;354;42.694;23.336;2024-02-26T14:10:11;8.50;;;7.70;;
739;SDS011;354;42.694;23.336;2024-02-26T14:12:37;8.63;;;7.27;;
739;SDS011;354;42.694;23.336;2024-02-26T14:15:05;9.17;;;8.07;;
739;SDS011;354;42.694;23.336;2024-02-26T14:17:32;8.60;;;7.80;;
739;SDS011;354;42.694;23.336;2024-02-26T14:20:00;10.83;;;8.57;;
739;SDS011;354;42.694;23.336;2024-02-26T14:22:29;13.97;;;7.67;;
739;SDS011;354;42.694;23.336;2024-02-26T14:24:57;10.83;;;8.00;;
739;SDS011;354;42.694;23.336;2024-02-26T14:27:23;11.40;;;9.60;;
739;SDS011;354;42.694;23.336;2024-02-26T14:29:48;8.57;;;7.87;;
739;SDS011;354;42.694;23.336;2024-02-26T14:32:14;8.50;;;6.97;;
739;SDS011;354;42.694;23.336;2024-02-26T14:34:40;8.60;;;7.83;;
739;SDS011;354;42.694;23.336;2024-02-26T14:37:06;8.73;;;7.77;;
739;SDS011;354;42.694;23.336;2024-02-26T14:39:31;8.63;;;7.70;;
739;SDS011;354;42.694;23.336;2024-02-26T14:41:57;11.10;;;7.50;;
739;SDS011;354;42.694;23.336;2024-02-26T14:44:23;8.77;;;7.80;;
739;SDS011;354;42.694;23.336;2024-02-26T14:46:51;9.30;;;8.40;;
739;SDS011;354;42.694;23.336;2024-02-26T14:49:17;8.07;;;7.27;;
739;SDS011;354;42.694;23.336;2024-02-26T14:51:43;11.67;;;10.47;;
739;SDS011;354;42.694;23.336;2024-02-26T14:54:10;9.47;;;8.57;;
739;SDS011;354;42.694;23.336;2024-02-26T14:56:36;10.17;;;8.90;;
739;SDS011;354;42.694;23.336;2024-02-26T14:59:02;9.17;;;8.07;;
739;SDS011;354;42.694;23.336;2024-02-26T15:01:27;8.53;;;7.50;;
739;SDS011;354;42.694;23.336;2024-02-26T15:03:53;10.00;;;9.00;;
739;SDS011;354;42.694;23.336;2024-02-26T15:06:18;10.73;;;8.77;;
739;SDS011;354;42.694;23.336;2024-02-26T15:08:44;8.43;;;7.63;;
739;SDS011;354;42.694;23.336;2024-02-26T15:11:09;9.67;;;8.67;;
739;SDS011;354;42.694;23.336;2024-02-26T15:13:35;9.50;;;8.50;;
739;SDS011;354;42.694;23.336;2024-02-26T15:18:56;9.87;;;8.87;;
739;SDS011;354;42.694;23.336;2024-02-26T15:21:25;8.63;;;7.93;;
739;SDS011;354;42.694;23.336;2024-02-26T15:23:50;9.63;;;7.87;;
739;SDS011;354;42.694;23.336;2024-02-26T15:26:25;9.47;;;8.10;;
739;SDS011;354;42.694;23.336;2024-02-26T15:28:51;8.60;;;7.37;;
739;SDS011;354;42.694;23.336;2024-02-26T15:32:19;8.07;;;7.27;;
739;SDS011;354;42.694;23.336;2024-02-26T15:35:33;8.63;;;7.93;;
739;SDS011;354;42.694;23.336;2024-02-26T15:38:20;8.77;;;8.07;;
739;SDS011;354;42.694;23.336;2024-02-26T15:41:50;8.60;;;7.53;;
739;SDS011;354;42.694;23.336;2024-02-26T15:44:18;8.30;;;7.43;;
739;SDS011;354;42.694;23.336;2024-02-26T15:46:47;8.10;;;7.30;;
739;SDS011;354;42.694;23.336;2024-02-26T15:49:16;9.17;;;8.23;;
739;SDS011;354;42.694;23.336;2024-02-26T15:51:41;9.20;;;8.37;;
739;SDS011;354;42.694;23.336;2024-02-26T15:54:06;9.33;;;8.10;;
739;SDS011;354;42.694;23.336;2024-02-26T15:56:32;11.20;;;9.40;;
739;SDS011;354;42.694;23.336;2024-02-26T15:58:57;9.47;;;8.57;;
739;SDS011;354;42.694;23.336;2024-02-26T16:01:22;9.53;;;8.33;;
739;SDS011;354;42.694;23.336;2024-02-26T16:03:48;13.97;;;11.30;;
739;SDS011;354;42.694;23.336;2024-02-26T16:06:49;9.00;;;8.13;;
739;SDS011;354;42.694;23.336;2024-02-26T16:09:13;9.33;;;8.20;;
739;SDS011;354;42.694;23.336;2024-02-26T16:11:39;10.13;;;8.60;;
739;SDS011;354;42.694;23.336;2024-02-26T16:14:12;10.63;;;8.93;;
739;SDS011;354;42.694;23.336;2024-02-26T16:16:46;11.27;;;9.23;;
739;SDS011;354;42.694;23.336;2024-02-26T16:19:24;10.09;;;9.19;;
739;SDS011;354;42.694;23.336;2024-02-26T16:21:51;10.00;;;8.43;;
739;SDS011;354;42.694;23.336;2024-02-26T16:24:18;12.30;;;8.50;;
739;SDS011;354;42.694;23.336;2024-02-26T16:26:43;9.90;;;8.27;;
739;SDS011;354;42.694;23.336;2024-02-26T16:29:09;11.10;;;10.00;;
739;SDS011;354;42.694;23.336;2024-02-26T16:31:34;10.10;;;8.87;;
739;SDS011;354;42.694;23.336;2024-02-26T16:33:59;9.67;;;8.80;;
739;SDS011;354;42.694;23.336;2024-02-26T16:36:25;10.07;;;9.17;;
739;SDS011;354;42.694;23.336;2024-02-26T16:38:50;10.77;;;9.70;;
739;SDS011;354;42.694;23.336;2024-02-26T16:41:15;11.17;;;10.07;;
739;SDS011;354;42.694;23.336;2024-02-26T16:43:41;12.53;;;9.70;;
739;SDS011;354;42.694;23.336;2024-02-26T16:46:06;11.83;;;10.00;;
739;SDS011;354;42.694;23.336;2024-02-26T16:48:34;50.23;;;33.10;;
739;SDS011;354;42.694;23.336;2024-02-26T16:51:01;12.23;;;9.77;;
739;SDS011;354;42.694;23.336;2024-02-26T16:53:27;12.13;;;10.20;;
739;SDS011;354;42.694;23.336;2024-02-26T16:55:53;13.87;;;8.37;;
739;SDS011;354;42.694;23.336;2024-02-26T16:58:18;9.80;;;8.83;;
739;SDS011;354;42.694;23.336;2024-02-26T17:00:48;14.03;;;9.17;;
739;SDS011;354;42.694;23.336;2024-02-26T17:03:14;11.57;;;8.77;;
739;SDS011;354;42.694;23.336;2024-02-26T17:05:40;11.57;;;10.00;;
739;SDS011;354;42.694;23.336;2024-02-26T17:08:06;11.10;;;8.60;;
739;SDS011;354;42.694;23.336;2024-02-26T17:10:32;10.13;;;8.03;;
739;SDS011;354;42.694;23.336;2024-02-26T17:12:57;21.60;;;14.17;;
739;SDS011;354;42.694;23.336;2024-02-26T17:15:22;10.00;;;9.00;;
739;SDS011;354;42.694;23.336;2024-02-26T17:17:48;8.60;;;7.67;;
739;SDS011;354;42.694;23.336;2024-02-26T17:20:14;10.17;;;8.50;;
739;SDS011;354;42.694;23.336;2024-02-26T17:22:39;8.33;;;7.40;;
739;SDS011;354;42.694;23.336;2024-02-26T17:25:05;14.10;;;8.10;;
739;SDS011;354;42.694;23.336;2024-02-26T17:27:31;9.80;;;7.87;;
739;SDS011;354;42.694;23.336;2024-02-26T17:29:56;12.53;;;10.13;;
739;SDS011;354;42.694;23.336;2024-02-26T17:32:21;11.43;;;9.60;;
739;SDS011;354;42.694;23.336;2024-02-26T17:34:47;8.90;;;8.00;;
739;SDS011;354;42.694;23.336;2024-02-26T17:37:13;9.87;;;8.60;;
739;SDS011;354;42.694;23.336;2024-02-26T17:39:39;11.23;;;8.97;;
739;SDS011;354;42.694;23.336;2024-02-26T17:42:04;10.30;;;9.13;;
739;SDS011;354;42.694;23.336;2024-02-26T17:44:39;10.03;;;9.07;;
739;SDS011;354;42.694;23.336;2024-02-26T17:47:04;11.23;;;9.20;;
739;SDS011;354;42.694;23.336;2024-02-26T17:49:31;16.40;;;13.57;;
739;SDS011;354;42.694;23.336;2024-02-26T17:51:57;13.83;;;9.70;;
739;SDS011;354;42.694;23.336;2024-02-26T17:54:22;13.53;;;10.40;;
739;SDS011;354;42.694;23.336;2024-02-26T17:56:47;13.87;;;9.23;;
739;SDS011;354;42.694;23.336;2024-02-26T17:59:13;16.43;;;9.27;;
739;SDS011;354;42.694;23.336;2024-02-26T18:01:38;13.83;;;9.20;;
739;SDS011;354;42.694;23.336;2024-02-26T18:04:04;19.77;;;13.97;;
739;SDS011;354;42.694;23.336;2024-02-26T18:06:29;11.50;;;9.97;;
739;SDS011;354;42.694;23.336;2024-02-26T18:08:54;16.17;;;11.97;;
739;SDS011;354;42.694;23.336;2024-02-26T18:11:20;12.97;;;10.37;;
739;SDS011;354;42.694;23.336;2024-02-26T18:13:46;10.67;;;9.63;;
739;SDS011;354;42.694;23.336;2024-02-26T18:16:11;26.67;;;18.47;;
739;SDS011;354;42.694;23.336;2024-02-26T18:18:37;12.40;;;10.83;;
739;SDS011;354;42.694;23.336;2024-02-26T18:21:03;12.60;;;9.50;;
739;SDS011;354;42.694;23.336;2024-02-26T18:23:29;11.77;;;9.33;;
739;SDS011;354;42.694;23.336;2024-02-26T18:25:54;11.53;;;10.33;;
739;SDS011;354;42.694;23.336;2024-02-26T18:28:20;18.57;;;13.83;;
739;SDS011;354;42.694;23.336;2024-02-26T18:30:46;17.03;;;11.97;;